Terminal Aerodrome Forecast
Issued by NWS

Home | Current Version | Previous Version | Text Only | Print | Product List | Glossary Off
Versions: 1 2 3 4 5 6 7 8 9 10 11 12 13 14 15 16 17

000
FTUS43 KBIS 210500
TAFDIK
TAF
KDIK 210530Z 2106/2206 23007KT P6SM SCT150
     FM211500 19009KT P6SM SCT030 BKN080
     FM212000 17012KT P6SM -SHRA BKN025 OVC050
     FM220300 VRB05KT P6SM -SHRASN OVC020=

USA.gov is the U.S. government's official web portal to all federal, state and local government web resources and services.